Time;durP1;ratioP1;P1;durP2;ratioP2;P2;SDS_P1;SDS_P2;PMS_P1;PMS_P2;Temp;Humidity;BMP_temperature;BMP_pressure;BME280_temperature;BME280_humidity;BME280_pressure;Samples;Min_cycle;Max_cycle;Signal;HPM_P1;HPM_P2
2024/01/04 00:00:25;;;;;;;6.15;2.28;;;6.90;99.90;;;;;;5106474;27;20853;-78
2024/01/04 00:02:58;;;;;;;4.32;1.50;;;6.90;99.90;;;;;;5110389;27;20050;-78
2024/01/04 00:05:24;;;;;;;5.57;1.75;;;6.80;99.90;;;;;;5120657;27;20549;-78
2024/01/04 00:07:50;;;;;;;6.68;1.77;;;6.90;99.90;;;;;;5121568;27;20072;-77
2024/01/04 00:10:17;;;;;;;8.43;2.15;;;6.80;99.90;;;;;;5132494;27;20150;-78
2024/01/04 00:12:44;;;;;;;6.05;1.52;;;6.80;99.90;;;;;;5105939;27;20049;-78
2024/01/04 00:15:10;;;;;;;3.45;1.48;;;6.80;99.90;;;;;;5119050;27;20039;-78
2024/01/04 00:17:36;;;;;;;6.40;2.03;;;6.80;99.90;;;;;;5109928;27;20512;-77
2024/01/04 00:20:03;;;;;;;6.35;1.70;;;6.80;99.90;;;;;;5109840;27;20047;-77
2024/01/04 00:22:28;;;;;;;5.03;1.63;;;6.70;99.90;;;;;;5133117;27;20576;-78
2024/01/04 00:24:57;;;;;;;6.40;1.90;;;6.80;99.90;;;;;;5133609;27;20403;-78
2024/01/04 00:27:23;;;;;;;4.72;2.00;;;6.70;99.90;;;;;;5116558;27;20035;-78
2024/01/04 00:29:52;;;;;;;5.07;2.05;;;6.70;99.90;;;;;;5137938;27;20046;-78
2024/01/04 00:32:18;;;;;;;6.90;2.20;;;6.70;99.90;;;;;;5125746;27;20119;-78
2024/01/04 00:34:43;;;;;;;4.53;2.08;;;6.70;99.90;;;;;;5105813;27;20067;-78
2024/01/04 00:37:09;;;;;;;6.25;2.42;;;6.70;99.90;;;;;;5113172;27;20126;-78
2024/01/04 00:39:35;;;;;;;5.13;2.25;;;6.70;99.90;;;;;;5124032;27;20050;-78
2024/01/04 00:42:02;;;;;;;9.40;2.42;;;6.70;99.90;;;;;;5131465;27;20035;-78
2024/01/04 00:44:28;;;;;;;6.13;2.08;;;6.60;99.90;;;;;;5123194;27;20071;-78
2024/01/04 00:46:53;;;;;;;5.90;2.30;;;6.60;99.90;;;;;;5125605;27;20167;-74
2024/01/04 00:49:20;;;;;;;8.30;2.53;;;6.60;99.90;;;;;;5134231;27;20695;-74
2024/01/04 00:51:46;;;;;;;8.27;2.95;;;6.60;99.90;;;;;;5128210;27;20815;-74
2024/01/04 00:54:12;;;;;;;5.80;2.75;;;6.60;99.90;;;;;;5129578;27;20125;-74
2024/01/04 00:56:38;;;;;;;8.35;2.05;;;6.60;99.90;;;;;;5131885;27;20063;-74
2024/01/04 00:59:04;;;;;;;5.10;1.63;;;6.60;99.90;;;;;;5125752;27;20095;-73
2024/01/04 01:01:33;;;;;;;4.93;2.13;;;6.60;99.90;;;;;;5144472;27;20052;-73
2024/01/04 01:04:00;;;;;;;6.75;2.58;;;6.50;99.90;;;;;;5124217;27;20043;-74
2024/01/04 01:06:26;;;;;;;16.52;3.35;;;6.40;99.90;;;;;;5118665;27;20041;-73
2024/01/04 01:08:51;;;;;;;9.43;2.92;;;6.30;99.90;;;;;;5124044;27;20480;-73
2024/01/04 01:11:17;;;;;;;9.15;3.70;;;6.30;99.90;;;;;;5121369;27;20034;-74
2024/01/04 01:13:43;;;;;;;10.02;3.42;;;6.30;99.90;;;;;;5118730;27;20042;-74
2024/01/04 01:16:10;;;;;;;9.57;3.28;;;6.30;99.90;;;;;;5119535;27;20034;-73
2024/01/04 01:18:37;;;;;;;10.57;3.33;;;6.20;99.90;;;;;;5126851;27;20445;-74
2024/01/04 01:21:03;;;;;;;6.72;2.88;;;6.20;99.90;;;;;;5116160;27;20065;-74
2024/01/04 01:23:29;;;;;;;6.90;3.13;;;6.20;99.90;;;;;;5118284;27;20137;-74
2024/01/04 01:25:57;;;;;;;7.55;2.97;;;6.20;99.90;;;;;;5131162;27;20576;-74
2024/01/04 01:28:23;;;;;;;5.55;2.97;;;6.20;99.90;;;;;;5117506;27;20121;-74
2024/01/04 01:30:50;;;;;;;7.72;2.80;;;6.20;99.90;;;;;;5105348;27;20450;-74
2024/01/04 01:33:16;;;;;;;10.93;3.33;;;6.20;99.90;;;;;;5122674;27;20046;-74
2024/01/04 01:35:42;;;;;;;9.18;3.03;;;6.20;99.90;;;;;;5124668;27;20047;-74
2024/01/04 01:38:08;;;;;;;8.93;3.13;;;6.20;99.90;;;;;;5110598;27;20408;-74
2024/01/04 01:40:33;;;;;;;11.48;3.33;;;6.10;99.90;;;;;;5115589;27;21245;-74
2024/01/04 01:42:59;;;;;;;8.82;2.22;;;6.10;99.90;;;;;;5112550;27;20047;-74
2024/01/04 01:45:28;;;;;;;5.80;2.10;;;6.10;99.90;;;;;;5115103;27;20401;-79
2024/01/04 01:47:55;;;;;;;9.43;2.70;;;6.10;99.90;;;;;;5117836;27;20034;-78
2024/01/04 01:50:23;;;;;;;8.02;2.75;;;6.10;99.90;;;;;;5130324;27;20047;-80
2024/01/04 01:52:51;;;;;;;8.68;2.05;;;6.10;99.90;;;;;;5108730;27;20054;-74
2024/01/04 01:55:17;;;;;;;5.55;2.05;;;6.10;99.90;;;;;;5111958;27;20059;-74
2024/01/04 01:57:44;;;;;;;5.00;2.08;;;6.10;99.90;;;;;;5124927;27;20038;-74
2024/01/04 02:00:16;;;;;;;4.50;1.80;;;6.10;99.90;;;;;;5125625;27;20131;-74
2024/01/04 02:02:48;;;;;;;6.90;1.77;;;6.10;99.90;;;;;;5120756;27;20125;-74
2024/01/04 02:05:15;;;;;;;4.00;1.38;;;6.10;99.90;;;;;;5120999;27;20034;-79
2024/01/04 02:07:42;;;;;;;9.02;1.50;;;6.10;99.90;;;;;;5099460;27;20039;-79
2024/01/04 02:10:08;;;;;;;5.57;1.27;;;6.10;99.90;;;;;;5121405;27;20167;-79
2024/01/04 02:12:34;;;;;;;3.90;1.00;;;6.10;99.90;;;;;;5123590;27;20493;-74
2024/01/04 02:14:59;;;;;;;4.00;0.90;;;6.10;99.90;;;;;;5121656;27;20517;-74
2024/01/04 02:17:25;;;;;;;5.50;1.17;;;6.00;99.90;;;;;;5121092;27;20447;-74
2024/01/04 02:19:51;;;;;;;5.93;1.48;;;6.00;99.90;;;;;;5111593;27;20070;-74
2024/01/04 02:22:17;;;;;;;6.28;1.63;;;6.00;99.90;;;;;;5115673;27;20035;-74
2024/01/04 02:24:46;;;;;;;5.75;1.52;;;6.00;99.90;;;;;;5115950;27;20055;-74
2024/01/04 02:27:13;;;;;;;5.72;1.27;;;6.00;99.90;;;;;;5113872;27;20030;-74
2024/01/04 02:29:38;;;;;;;3.30;1.05;;;6.00;99.90;;;;;;5122262;27;20043;-73
2024/01/04 02:32:04;;;;;;;7.55;1.52;;;6.00;99.90;;;;;;5123023;27;20102;-74
2024/01/04 02:34:34;;;;;;;7.68;1.80;;;6.00;99.90;;;;;;5100472;27;20146;-74
2024/01/04 02:37:02;;;;;;;4.45;1.33;;;6.00;99.90;;;;;;5100433;27;20502;-73
2024/01/04 02:39:28;;;;;;;8.13;1.50;;;6.00;99.90;;;;;;5116226;27;20515;-74
2024/01/04 02:41:54;;;;;;;6.13;1.40;;;5.90;99.90;;;;;;5108904;27;20038;-73
2024/01/04 02:44:20;;;;;;;9.07;1.45;;;6.00;99.90;;;;;;5114517;27;20039;-74
2024/01/04 02:46:47;;;;;;;8.18;1.63;;;5.90;99.90;;;;;;5116403;27;20711;-78
2024/01/04 02:49:13;;;;;;;6.45;1.40;;;5.90;99.90;;;;;;5112427;27;20035;-78
2024/01/04 02:51:39;;;;;;;4.85;1.13;;;5.90;99.90;;;;;;5123755;27;20507;-78
2024/01/04 02:54:05;;;;;;;4.68;1.20;;;5.90;99.90;;;;;;5118279;27;20039;-78
2024/01/04 02:56:30;;;;;;;5.55;1.52;;;5.90;99.90;;;;;;5122365;27;20115;-78
2024/01/04 02:58:56;;;;;;;5.03;1.02;;;5.90;99.90;;;;;;5107537;27;20054;-78
2024/01/04 03:01:23;;;;;;;3.92;1.02;;;5.90;99.90;;;;;;5120101;27;20049;-79
2024/01/04 03:03:51;;;;;;;7.47;1.15;;;5.90;99.90;;;;;;5118148;27;20055;-79
2024/01/04 03:06:27;;;;;;;4.97;1.17;;;5.90;99.90;;;;;;5097540;27;20480;-79
2024/01/04 03:08:53;;;;;;;6.05;1.05;;;5.90;99.90;;;;;;5111680;27;20043;-78
2024/01/04 03:11:19;;;;;;;6.07;1.33;;;5.90;99.90;;;;;;5130193;27;20046;-73
2024/01/04 03:13:49;;;;;;;4.78;1.35;;;5.90;99.90;;;;;;5116590;27;20058;-74
2024/01/04 03:16:15;;;;;;;5.82;1.20;;;5.80;99.90;;;;;;5138262;27;20046;-78
2024/01/04 03:18:41;;;;;;;4.10;0.90;;;5.90;99.90;;;;;;5139262;27;20537;-79
2024/01/04 03:21:08;;;;;;;5.90;1.00;;;5.80;99.90;;;;;;5132692;27;20050;-78
2024/01/04 03:23:34;;;;;;;3.90;0.93;;;5.80;99.90;;;;;;5127847;27;20042;-79
2024/01/04 03:26:00;;;;;;;4.72;1.10;;;5.80;99.90;;;;;;5134839;27;20133;-78
2024/01/04 03:28:26;;;;;;;2.70;0.80;;;5.80;99.90;;;;;;5130626;27;20035;-79
2024/01/04 03:30:52;;;;;;;4.25;0.90;;;5.70;99.90;;;;;;5122360;27;20085;-73
2024/01/04 03:33:18;;;;;;;3.55;1.13;;;5.70;99.90;;;;;;5128319;27;20464;-73
2024/01/04 03:35:44;;;;;;;5.60;0.80;;;5.70;99.90;;;;;;5118600;27;20135;-74
2024/01/04 03:38:09;;;;;;;2.90;0.70;;;5.70;99.90;;;;;;5114956;27;20074;-73
2024/01/04 03:40:35;;;;;;;2.78;0.93;;;5.70;99.90;;;;;;5124259;27;20045;-73
2024/01/04 03:43:02;;;;;;;3.95;1.05;;;5.70;99.90;;;;;;5119422;27;20038;-73
2024/01/04 03:45:28;;;;;;;3.63;0.63;;;5.70;99.90;;;;;;5118364;27;20116;-73
2024/01/04 03:47:54;;;;;;;3.22;0.98;;;5.70;99.90;;;;;;5120443;27;20420;-73
2024/01/04 03:50:20;;;;;;;3.90;0.80;;;5.60;99.90;;;;;;5109696;27;20043;-74
2024/01/04 03:52:45;;;;;;;6.80;1.10;;;5.60;99.90;;;;;;5117614;27;20560;-74
2024/01/04 03:55:11;;;;;;;3.13;0.60;;;5.60;99.90;;;;;;5126727;27;20099;-72
2024/01/04 03:57:37;;;;;;;5.97;0.93;;;5.50;99.90;;;;;;5119586;27;20042;-76
2024/01/04 04:00:04;;;;;;;2.90;0.80;;;5.50;99.90;;;;;;5119799;27;20547;-77
2024/01/04 04:02:29;;;;;;;2.92;0.80;;;5.50;99.90;;;;;;5116968;27;20074;-72
2024/01/04 04:04:56;;;;;;;3.55;0.65;;;5.50;99.90;;;;;;5118580;27;20057;-72
2024/01/04 04:07:23;;;;;;;3.85;0.82;;;5.50;99.90;;;;;;5117001;27;20045;-77
2024/01/04 04:09:49;;;;;;;4.43;0.85;;;5.50;99.90;;;;;;5099571;27;20046;-77
2024/01/04 04:12:14;;;;;;;5.55;1.00;;;5.40;99.90;;;;;;5119968;27;20043;-77
2024/01/04 04:14:43;;;;;;;4.75;0.80;;;5.50;99.90;;;;;;5113402;27;20449;-77
2024/01/04 04:17:09;;;;;;;6.10;1.00;;;5.40;99.90;;;;;;5115000;27;20512;-79
2024/01/04 04:19:35;;;;;;;4.97;1.08;;;5.40;99.90;;;;;;5118766;27;20078;-77
2024/01/04 04:22:01;;;;;;;4.45;0.75;;;5.40;99.90;;;;;;5122246;27;20035;-78
2024/01/04 04:24:26;;;;;;;5.45;1.10;;;5.40;99.90;;;;;;5115028;27;20099;-78
2024/01/04 04:26:52;;;;;;;3.97;0.90;;;5.30;99.90;;;;;;5108641;27;20054;-78
2024/01/04 04:29:18;;;;;;;3.33;0.80;;;5.30;99.90;;;;;;5114001;27;20111;-78
2024/01/04 04:31:44;;;;;;;5.05;0.77;;;5.30;99.90;;;;;;5112691;27;20447;-78
2024/01/04 04:34:10;;;;;;;3.78;0.77;;;5.30;99.90;;;;;;5116027;27;20046;-73
2024/01/04 04:36:36;;;;;;;2.67;0.73;;;5.30;99.90;;;;;;5113420;27;20062;-73
2024/01/04 04:39:02;;;;;;;4.82;1.08;;;5.20;99.90;;;;;;5116616;27;20501;-73
2024/01/04 04:41:28;;;;;;;3.92;0.90;;;5.20;99.90;;;;;;5103842;27;20039;-73
2024/01/04 04:43:54;;;;;;;2.53;0.75;;;5.20;99.90;;;;;;5121838;27;20038;-73
2024/01/04 04:46:20;;;;;;;3.25;0.73;;;5.20;99.90;;;;;;5117287;27;20073;-73
2024/01/04 04:48:46;;;;;;;5.82;1.23;;;5.20;99.90;;;;;;5116748;27;20810;-73
2024/01/04 04:51:12;;;;;;;3.33;0.73;;;5.20;99.90;;;;;;5125031;27;20046;-73
2024/01/04 04:53:38;;;;;;;3.88;0.82;;;5.10;99.90;;;;;;5126843;27;20035;-73
2024/01/04 04:56:04;;;;;;;4.70;1.10;;;5.10;99.90;;;;;;5118105;27;20095;-73
2024/01/04 04:58:29;;;;;;;4.15;1.52;;;5.10;99.90;;;;;;5130963;27;20038;-73
2024/01/04 05:00:58;;;;;;;3.10;0.88;;;5.20;99.90;;;;;;5116314;27;20047;-73
2024/01/04 05:03:24;;;;;;;5.32;1.08;;;5.20;99.90;;;;;;5141131;27;20114;-73
2024/01/04 05:05:50;;;;;;;6.70;0.95;;;5.20;99.90;;;;;;5141985;27;20476;-73
2024/01/04 05:08:16;;;;;;;8.25;1.27;;;5.20;99.90;;;;;;5134796;27;20039;-73
2024/01/04 05:10:42;;;;;;;2.50;0.95;;;5.10;99.90;;;;;;5135533;27;20059;-72
2024/01/04 05:13:08;;;;;;;4.35;1.00;;;5.10;99.90;;;;;;5131018;27;20134;-72
2024/01/04 05:15:34;;;;;;;5.10;0.90;;;5.00;99.90;;;;;;5125018;27;20049;-73
2024/01/04 05:18:00;;;;;;;7.07;1.20;;;5.00;99.90;;;;;;5132103;27;20563;-72
2024/01/04 05:20:26;;;;;;;5.00;1.38;;;5.00;99.90;;;;;;5138042;27;20110;-73
2024/01/04 05:22:51;;;;;;;4.95;0.95;;;4.90;99.90;;;;;;5131332;27;20070;-73
2024/01/04 05:25:17;;;;;;;5.32;1.20;;;4.90;99.90;;;;;;5110413;27;20034;-72
2024/01/04 05:27:43;;;;;;;3.60;1.10;;;4.90;99.90;;;;;;5132053;27;20489;-73
2024/01/04 05:30:12;;;;;;;3.08;0.90;;;4.90;99.90;;;;;;5112487;27;20039;-73
2024/01/04 05:32:41;;;;;;;6.20;1.20;;;4.90;99.90;;;;;;5126530;27;20447;-73
2024/01/04 05:35:11;;;;;;;4.88;0.77;;;4.90;99.90;;;;;;5131540;27;20130;-73
2024/01/04 05:37:41;;;;;;;5.13;1.20;;;5.00;99.90;;;;;;5116985;27;20070;-73
2024/01/04 05:40:07;;;;;;;4.32;1.27;;;5.00;99.90;;;;;;5119599;27;20062;-73
2024/01/04 05:42:33;;;;;;;5.80;0.90;;;5.00;99.90;;;;;;5114782;27;20114;-73
2024/01/04 05:44:59;;;;;;;3.78;1.20;;;5.00;99.90;;;;;;5129713;27;20180;-73
2024/01/04 05:47:24;;;;;;;6.65;1.35;;;5.00;99.90;;;;;;5124416;27;20046;-73
2024/01/04 05:49:50;;;;;;;4.90;1.42;;;5.00;99.90;;;;;;5129171;27;20046;-73
2024/01/04 05:52:16;;;;;;;7.00;0.95;;;5.00;99.90;;;;;;5117193;27;20441;-73
2024/01/04 05:54:42;;;;;;;4.13;1.15;;;5.00;99.90;;;;;;5129803;27;20047;-73
2024/01/04 05:57:07;;;;;;;4.10;1.00;;;5.00;99.90;;;;;;5112729;27;20034;-73
2024/01/04 05:59:33;;;;;;;4.40;1.00;;;5.00;99.90;;;;;;5129826;27;20091;-73
2024/01/04 06:01:59;;;;;;;8.30;1.13;;;4.90;99.90;;;;;;5119893;27;20470;-73
2024/01/04 06:04:28;;;;;;;5.53;0.90;;;5.10;99.90;;;;;;5126969;27;20122;-73
2024/01/04 06:06:53;;;;;;;6.25;1.15;;;4.90;99.90;;;;;;5132295;27;20053;-73
2024/01/04 06:09:20;;;;;;;6.10;1.02;;;4.90;99.90;;;;;;5124261;27;20031;-73
2024/01/04 06:11:47;;;;;;;8.15;1.00;;;4.80;99.90;;;;;;5130829;27;20076;-73
2024/01/04 06:14:13;;;;;;;5.93;1.40;;;4.80;99.90;;;;;;5117880;27;20080;-73
2024/01/04 06:16:39;;;;;;;9.13;1.23;;;4.80;99.90;;;;;;5114249;27;20043;-73
2024/01/04 06:19:05;;;;;;;7.35;1.33;;;4.80;99.90;;;;;;5115851;27;20053;-73
2024/01/04 06:21:30;;;;;;;3.45;1.00;;;4.80;99.90;;;;;;5121875;27;20485;-73
2024/01/04 06:23:57;;;;;;;3.50;1.00;;;4.80;99.90;;;;;;5122648;27;20038;-73
2024/01/04 06:26:24;;;;;;;6.55;1.30;;;4.80;99.90;;;;;;5118185;27;20492;-73
2024/01/04 06:28:50;;;;;;;3.53;0.90;;;4.80;99.90;;;;;;5108759;27;20571;-74
2024/01/04 06:31:15;;;;;;;7.45;1.23;;;4.80;99.90;;;;;;5129044;27;20550;-74
2024/01/04 06:33:41;;;;;;;4.22;1.00;;;4.80;99.90;;;;;;5127349;27;20043;-74
2024/01/04 06:36:10;;;;;;;5.90;1.00;;;4.80;99.90;;;;;;5114043;27;20058;-74
2024/01/04 06:38:36;;;;;;;5.13;1.20;;;4.80;99.90;;;;;;5128268;27;20056;-73
2024/01/04 06:41:03;;;;;;;3.60;1.08;;;4.80;99.90;;;;;;5127970;27;20046;-73
2024/01/04 06:43:32;;;;;;;4.00;0.93;;;4.80;99.90;;;;;;5121397;27;20035;-73
2024/01/04 06:45:58;;;;;;;4.45;1.20;;;4.80;99.90;;;;;;5113708;27;20103;-73
2024/01/04 06:48:24;;;;;;;5.50;1.08;;;4.80;99.90;;;;;;5111068;27;20042;-74
2024/01/04 06:50:50;;;;;;;6.35;2.30;;;4.70;99.90;;;;;;5137572;27;20050;-73
2024/01/04 06:53:16;;;;;;;6.65;2.20;;;4.70;99.90;;;;;;5118120;27;20047;-74
2024/01/04 06:55:43;;;;;;;6.95;1.88;;;4.70;99.90;;;;;;5123678;27;20051;-73
2024/01/04 06:58:12;;;;;;;5.78;1.50;;;4.80;99.90;;;;;;5137038;27;20038;-73
2024/01/04 07:00:39;;;;;;;5.32;1.40;;;4.80;99.90;;;;;;5136160;27;20132;-74
2024/01/04 07:03:06;;;;;;;5.03;1.17;;;4.70;99.90;;;;;;5129829;27;20091;-73
2024/01/04 07:05:31;;;;;;;5.40;1.02;;;4.70;99.90;;;;;;5131006;27;20061;-74
2024/01/04 07:07:57;;;;;;;3.65;1.13;;;4.70;99.90;;;;;;5113727;27;20067;-74
2024/01/04 07:10:25;;;;;;;8.00;1.48;;;4.70;99.90;;;;;;5131010;27;20117;-74
2024/01/04 07:12:51;;;;;;;4.25;1.25;;;4.80;99.90;;;;;;5108090;27;20053;-74
2024/01/04 07:15:17;;;;;;;5.40;1.10;;;4.70;99.90;;;;;;5110540;27;20030;-74
2024/01/04 07:17:43;;;;;;;6.57;1.40;;;4.70;99.90;;;;;;5127337;27;20486;-73
2024/01/04 07:20:09;;;;;;;5.82;1.58;;;4.70;99.90;;;;;;5121164;27;20543;-73
2024/01/04 07:22:35;;;;;;;4.00;1.20;;;4.70;99.90;;;;;;5139336;27;20077;-78
2024/01/04 07:25:01;;;;;;;5.38;0.90;;;4.70;99.90;;;;;;5138400;27;20081;-78
2024/01/04 07:27:29;;;;;;;5.82;1.15;;;4.70;99.90;;;;;;5130376;27;20038;-78
2024/01/04 07:29:58;;;;;;;6.55;1.05;;;4.70;99.90;;;;;;5126351;27;20146;-79
2024/01/04 07:32:24;;;;;;;10.82;1.33;;;4.70;99.90;;;;;;5120523;27;20039;-79
2024/01/04 07:34:51;;;;;;;4.90;1.48;;;4.80;99.90;;;;;;5124790;27;20519;-79
2024/01/04 07:37:16;;;;;;;4.65;1.23;;;4.70;99.90;;;;;;5112535;27;20528;-78
2024/01/04 07:39:42;;;;;;;4.32;1.02;;;4.70;99.90;;;;;;5123600;27;20099;-74
2024/01/04 07:42:12;;;;;;;6.35;1.33;;;4.70;99.90;;;;;;5127649;27;20050;-79
2024/01/04 07:44:37;;;;;;;5.60;1.20;;;4.70;99.90;;;;;;5117556;27;20043;-79
2024/01/04 07:47:03;;;;;;;5.43;1.15;;;4.70;99.90;;;;;;5119442;27;20452;-79
2024/01/04 07:49:29;;;;;;;6.20;1.20;;;4.70;99.90;;;;;;5118001;27;20034;-79
2024/01/04 07:51:54;;;;;;;4.20;1.10;;;4.60;99.90;;;;;;5128817;27;20046;-74
2024/01/04 07:54:20;;;;;;;6.03;1.17;;;4.70;99.90;;;;;;5130254;27;20088;-73
2024/01/04 07:56:46;;;;;;;4.65;1.02;;;4.70;99.90;;;;;;5110173;27;20684;-73
2024/01/04 07:59:12;;;;;;;4.20;1.17;;;4.70;99.90;;;;;;5128745;27;20057;-74
2024/01/04 08:01:38;;;;;;;4.00;1.20;;;4.70;99.90;;;;;;5125375;27;20043;-73
2024/01/04 08:04:04;;;;;;;2.75;1.02;;;4.70;99.90;;;;;;5118462;27;20179;-73
2024/01/04 08:06:31;;;;;;;4.38;1.10;;;4.70;99.90;;;;;;5124554;27;20118;-74
2024/01/04 08:08:57;;;;;;;4.43;1.50;;;4.60;99.90;;;;;;5121333;27;20047;-73
2024/01/04 08:11:23;;;;;;;4.60;1.20;;;4.60;99.90;;;;;;5145354;27;20042;-73
2024/01/04 08:13:51;;;;;;;4.07;1.40;;;4.60;99.90;;;;;;5111013;27;20039;-74
2024/01/04 08:16:18;;;;;;;3.33;1.25;;;4.60;99.90;;;;;;5122595;27;20405;-73
2024/01/04 08:18:43;;;;;;;4.93;1.52;;;4.60;99.90;;;;;;5121290;27;20043;-74
2024/01/04 08:21:10;;;;;;;5.07;1.40;;;4.60;99.90;;;;;;5124126;27;20049;-73
2024/01/04 08:23:37;;;;;;;4.85;1.65;;;4.60;99.90;;;;;;5119971;27;20045;-73
2024/01/04 08:26:06;;;;;;;6.13;1.83;;;4.60;99.90;;;;;;5129902;27;20050;-74
2024/01/04 08:28:32;;;;;;;3.40;1.20;;;4.60;99.90;;;;;;5123889;27;20114;-73
2024/01/04 08:30:58;;;;;;;3.40;1.48;;;4.50;99.90;;;;;;5143125;27;20207;-72
2024/01/04 08:33:24;;;;;;;6.97;1.40;;;4.60;99.90;;;;;;5131569;27;20042;-72
2024/01/04 08:35:50;;;;;;;2.80;1.17;;;4.60;99.90;;;;;;5120649;27;20042;-72
2024/01/04 08:38:16;;;;;;;4.90;1.45;;;4.60;99.90;;;;;;5119766;27;20050;-72
2024/01/04 08:40:42;;;;;;;5.80;1.45;;;4.60;99.90;;;;;;5106742;27;20490;-72
2024/01/04 08:43:08;;;;;;;3.20;1.27;;;4.70;99.90;;;;;;5128694;27;20047;-72
2024/01/04 08:45:33;;;;;;;5.38;1.23;;;4.60;99.90;;;;;;5104014;27;20386;-72
2024/01/04 08:47:59;;;;;;;4.40;1.52;;;4.70;99.90;;;;;;5128249;27;20043;-72
2024/01/04 08:50:28;;;;;;;4.32;1.33;;;4.60;99.90;;;;;;5123785;27;21040;-72
2024/01/04 08:52:54;;;;;;;6.43;1.60;;;4.70;99.90;;;;;;5105028;27;20054;-72
2024/01/04 08:55:20;;;;;;;3.33;1.30;;;4.70;99.90;;;;;;5120967;27;20479;-72
2024/01/04 08:57:47;;;;;;;6.68;2.08;;;4.70;99.90;;;;;;5123078;27;20110;-78
2024/01/04 09:00:14;;;;;;;8.43;2.10;;;4.70;99.90;;;;;;5125293;27;20042;-77
2024/01/04 09:02:40;;;;;;;4.13;1.42;;;4.70;99.90;;;;;;5102586;27;20035;-78
2024/01/04 09:05:07;;;;;;;4.95;1.50;;;4.70;99.90;;;;;;5119194;27;20054;-77
2024/01/04 09:07:33;;;;;;;4.63;1.30;;;4.80;99.90;;;;;;5141715;27;20035;-78
2024/01/04 09:09:59;;;;;;;5.85;1.40;;;4.80;99.90;;;;;;5123592;27;20053;-76
2024/01/04 09:12:26;;;;;;;4.45;1.02;;;4.80;99.90;;;;;;5119178;27;20160;-71
2024/01/04 09:14:53;;;;;;;5.68;1.40;;;4.80;99.90;;;;;;5141073;27;20152;-72
2024/01/04 09:17:19;;;;;;;3.47;1.38;;;4.80;99.90;;;;;;5117555;27;21046;-73
2024/01/04 09:19:46;;;;;;;4.07;1.30;;;4.80;99.90;;;;;;5121261;27;20043;-73
2024/01/04 09:22:12;;;;;;;4.72;1.33;;;4.90;99.90;;;;;;5123070;27;20396;-73
2024/01/04 09:24:38;;;;;;;4.05;1.25;;;4.80;99.90;;;;;;5144534;27;20042;-73
2024/01/04 09:27:04;;;;;;;3.65;1.38;;;4.90;99.90;;;;;;5113932;27;20049;-72
2024/01/04 09:29:31;;;;;;;4.13;1.75;;;4.90;99.90;;;;;;5129842;27;20046;-72
2024/01/04 09:31:57;;;;;;;4.65;2.13;;;4.90;99.90;;;;;;5123655;27;20046;-71
2024/01/04 09:34:24;;;;;;;5.88;1.80;;;4.90;99.90;;;;;;5115742;27;20416;-72
2024/01/04 09:36:50;;;;;;;6.43;1.92;;;4.90;99.90;;;;;;5114490;27;20041;-72
2024/01/04 09:39:17;;;;;;;4.03;1.40;;;4.90;99.90;;;;;;5116951;27;20524;-72
2024/01/04 09:41:47;;;;;;;4.78;1.60;;;4.90;99.90;;;;;;5101838;27;20039;-72
2024/01/04 09:44:13;;;;;;;6.17;1.67;;;4.90;99.90;;;;;;5108800;27;20046;-72
2024/01/04 09:46:41;;;;;;;3.65;1.45;;;4.90;99.90;;;;;;5095301;27;20043;-72
2024/01/04 09:49:09;;;;;;;4.38;1.15;;;4.90;99.90;;;;;;5103007;27;20043;-73
2024/01/04 09:51:39;;;;;;;3.70;1.50;;;4.90;99.90;;;;;;5125923;27;20038;-72
2024/01/04 09:54:10;;;;;;;3.60;1.20;;;5.00;99.90;;;;;;5123836;27;20046;-72
2024/01/04 09:56:46;;;;;;;3.53;0.82;;;5.00;99.90;;;;;;5115167;27;20031;-72
2024/01/04 09:59:12;;;;;;;2.75;0.90;;;5.00;99.90;;;;;;5130488;27;20079;-72
2024/01/04 10:01:39;;;;;;;4.93;1.15;;;5.00;99.90;;;;;;5124187;27;20039;-72
2024/01/04 10:04:06;;;;;;;4.60;0.88;;;5.00;99.90;;;;;;5119024;27;20039;-73
2024/01/04 10:06:35;;;;;;;5.57;0.93;;;5.00;99.90;;;;;;5129630;27;20042;-72
2024/01/04 10:09:16;;;;;;;4.32;1.02;;;5.00;99.90;;;;;;5120800;27;20144;-73
2024/01/04 10:11:47;;;;;;;4.65;0.90;;;5.00;99.90;;;;;;5115147;27;20042;-72
2024/01/04 10:14:14;;;;;;;3.17;0.73;;;5.00;99.90;;;;;;5112014;27;20043;-74
2024/01/04 10:16:40;;;;;;;4.10;1.10;;;5.00;99.90;;;;;;5109363;27;20080;-74
2024/01/04 10:19:06;;;;;;;3.25;0.77;;;5.10;99.90;;;;;;5124767;27;20034;-73
2024/01/04 10:21:35;;;;;;;3.78;1.00;;;5.00;99.90;;;;;;5131315;27;20437;-74
2024/01/04 10:24:02;;;;;;;4.10;1.02;;;5.00;99.90;;;;;;5112744;27;20069;-73
2024/01/04 10:26:28;;;;;;;5.72;1.10;;;5.10;99.90;;;;;;5117982;27;20054;-73
2024/01/04 10:29:00;;;;;;;5.00;1.08;;;5.10;99.90;;;;;;5108285;27;20039;-72
2024/01/04 10:31:26;;;;;;;2.55;0.85;;;5.10;99.90;;;;;;5123055;27;20034;-78
2024/01/04 10:33:59;;;;;;;5.55;0.90;;;5.20;99.90;;;;;;5114069;27;20054;-77
2024/01/04 10:36:29;;;;;;;4.13;1.00;;;5.20;99.90;;;;;;5124578;27;20056;-77
2024/01/04 10:38:59;;;;;;;3.67;0.90;;;5.20;99.90;;;;;;5123618;27;20051;-78
2024/01/04 10:41:28;;;;;;;3.78;0.82;;;5.30;99.90;;;;;;5132089;27;20511;-73
2024/01/04 10:44:07;;;;;;;3.63;0.80;;;5.30;99.90;;;;;;5130081;27;20042;-73
2024/01/04 10:46:34;;;;;;;2.67;0.90;;;5.30;99.90;;;;;;5125932;27;20035;-72
2024/01/04 10:49:02;;;;;;;3.08;0.80;;;5.30;99.90;;;;;;5128604;27;20560;-77
2024/01/04 10:51:30;;;;;;;2.90;0.75;;;5.30;99.90;;;;;;5112365;27;20055;-77
2024/01/04 10:54:01;;;;;;;3.30;1.00;;;5.30;99.90;;;;;;5136812;27;20451;-78
2024/01/04 10:56:35;;;;;;;4.13;1.58;;;5.30;99.90;;;;;;5134314;27;20641;-78
2024/01/04 10:59:03;;;;;;;3.38;1.10;;;5.30;99.90;;;;;;5124582;27;20058;-78
2024/01/04 11:01:29;;;;;;;4.75;1.23;;;5.30;99.90;;;;;;5117006;27;20054;-78
2024/01/04 11:03:59;;;;;;;5.15;1.05;;;5.20;99.90;;;;;;5121391;27;20460;-78
2024/01/04 11:06:28;;;;;;;3.15;1.00;;;5.20;99.90;;;;;;5128851;27;20039;-73
2024/01/04 11:08:57;;;;;;;2.60;1.20;;;5.20;99.90;;;;;;5118692;27;20038;-73
2024/01/04 11:11:27;;;;;;;4.37;0.93;;;5.20;99.90;;;;;;5116880;27;20150;-73
2024/01/04 11:13:53;;;;;;;3.95;1.25;;;5.20;99.90;;;;;;5098903;27;20046;-72
2024/01/04 11:16:45;;;;;;;3.05;1.00;;;5.20;99.90;;;;;;5128310;27;20046;-72
2024/01/04 11:19:37;;;;;;;3.08;1.00;;;5.20;99.90;;;;;;5069080;27;20083;-73
2024/01/04 11:22:03;;;;;;;2.72;0.90;;;5.30;99.90;;;;;;5124748;27;20126;-72
2024/01/04 11:24:55;;;;;;;7.93;3.50;;;5.30;99.90;;;;;;5125552;27;20118;-72
2024/01/04 11:27:24;;;;;;;4.97;1.60;;;5.30;99.90;;;;;;5122079;27;20611;-72
2024/01/04 11:29:50;;;;;;;3.90;1.30;;;5.30;99.90;;;;;;5119663;27;20039;-72
2024/01/04 11:32:19;;;;;;;4.07;1.30;;;5.40;99.90;;;;;;5114017;27;20130;-72
2024/01/04 11:34:45;;;;;;;5.78;2.85;;;5.30;99.90;;;;;;5121456;27;20047;-72
2024/01/04 11:37:18;;;;;;;4.68;1.40;;;5.40;99.90;;;;;;5119211;27;20079;-72
2024/01/04 11:40:00;;;;;;;3.80;1.10;;;5.40;99.90;;;;;;5120907;27;20031;-72
2024/01/04 11:42:35;;;;;;;4.50;1.15;;;5.40;99.90;;;;;;5111933;27;20041;-72
2024/01/04 11:45:04;;;;;;;4.38;0.90;;;5.40;99.90;;;;;;5124826;27;20061;-72
2024/01/04 11:47:39;;;;;;;5.40;1.07;;;5.40;99.90;;;;;;5127499;27;20046;-72
2024/01/04 11:50:25;;;;;;;3.25;0.70;;;5.40;99.90;;;;;;5110166;27;20412;-72
2024/01/04 11:53:03;;;;;;;3.45;1.08;;;5.40;99.90;;;;;;5103169;27;20113;-72
2024/01/04 11:55:29;;;;;;;3.90;0.98;;;5.40;99.90;;;;;;5118992;27;20494;-72
2024/01/04 11:58:24;;;;;;;4.70;1.08;;;5.40;99.90;;;;;;5124885;27;20047;-72
2024/01/04 12:00:52;;;;;;;2.60;1.05;;;5.40;99.90;;;;;;5126601;27;20053;-72
2024/01/04 12:03:20;;;;;;;4.80;1.30;;;5.40;99.90;;;;;;5123314;27;20196;-72
2024/01/04 12:05:54;;;;;;;3.58;1.02;;;5.40;99.90;;;;;;5119256;27;20073;-72
2024/01/04 12:08:30;;;;;;;4.55;0.90;;;5.50;99.90;;;;;;5121887;27;20075;-72
2024/01/04 12:11:01;;;;;;;2.25;0.90;;;5.50;99.90;;;;;;5124068;27;20050;-74
2024/01/04 12:13:27;;;;;;;4.82;1.08;;;5.40;99.90;;;;;;5126200;27;20400;-74
2024/01/04 12:15:53;;;;;;;3.30;1.23;;;5.40;99.90;;;;;;5122923;27;20045;-73
2024/01/04 12:18:21;;;;;;;4.35;1.35;;;5.40;99.90;;;;;;5111984;27;20047;-74
2024/01/04 12:20:47;;;;;;;5.07;1.50;;;5.50;99.90;;;;;;5110974;27;20086;-74
2024/01/04 12:23:13;;;;;;;4.70;1.20;;;5.50;99.90;;;;;;5111795;27;20065;-74
2024/01/04 12:25:40;;;;;;;4.20;1.20;;;5.50;99.90;;;;;;5123172;27;20076;-74
2024/01/04 12:28:10;;;;;;;4.57;1.38;;;5.50;99.90;;;;;;5132027;27;20034;-74
2024/01/04 12:30:40;;;;;;;4.05;1.23;;;5.60;99.90;;;;;;5106547;27;20041;-72
2024/01/04 12:33:08;;;;;;;;;;;5.60;99.90;;;;;;5131844;27;20042;-72
2024/01/04 12:35:34;;;;;;;5.20;1.85;;;5.60;99.90;;;;;;5134986;27;19922;-72
2024/01/04 12:38:04;;;;;;;4.85;1.00;;;5.60;99.90;;;;;;5118055;27;20061;-72
2024/01/04 12:40:40;;;;;;;;;;;5.60;99.90;;;;;;5140602;27;20053;-72
2024/01/04 12:43:08;;;;;;;3.53;1.10;;;5.60;99.90;;;;;;5126007;27;19926;-73
2024/01/04 12:45:34;;;;;;;4.18;1.10;;;5.60;99.90;;;;;;5118777;27;20500;-73
2024/01/04 12:48:05;;;;;;;3.92;1.15;;;5.60;99.90;;;;;;5104303;27;20075;-73
2024/01/04 12:50:33;;;;;;;4.15;1.25;;;5.60;99.90;;;;;;5122491;27;20096;-73
2024/01/04 12:52:59;;;;;;;3.13;1.05;;;5.60;99.90;;;;;;5099176;27;20047;-73
2024/01/04 12:55:28;;;;;;;4.05;1.20;;;5.60;99.90;;;;;;5098558;27;20039;-73
2024/01/04 12:57:54;;;;;;;3.45;1.00;;;5.60;99.90;;;;;;5125218;27;20049;-73